sensor_id;sensor_type;location;lat;lon;timestamp;P1;durP1;ratioP1;P2;durP2;ratioP2
27983;SDS011;15317;50.360;8.726;2024-03-08T00:00:20;36.93;;;30.53;;
27983;SDS011;15317;50.360;8.726;2024-03-08T00:05:24;32.10;;;27.87;;
27983;SDS011;15317;50.360;8.726;2024-03-08T00:10:27;29.03;;;23.63;;
27983;SDS011;15317;50.360;8.726;2024-03-08T00:15:32;25.67;;;22.53;;
27983;SDS011;15317;50.360;8.726;2024-03-08T00:20:36;26.50;;;22.70;;
27983;SDS011;15317;50.360;8.726;2024-03-08T00:25:40;29.23;;;23.77;;
27983;SDS011;15317;50.360;8.726;2024-03-08T00:30:44;26.97;;;22.40;;
27983;SDS011;15317;50.360;8.726;2024-03-08T00:35:48;26.33;;;22.40;;
27983;SDS011;15317;50.360;8.726;2024-03-08T00:40:52;26.10;;;22.83;;
27983;SDS011;15317;50.360;8.726;2024-03-08T00:45:56;27.27;;;23.17;;
27983;SDS011;15317;50.360;8.726;2024-03-08T00:51:00;26.93;;;23.17;;
27983;SDS011;15317;50.360;8.726;2024-03-08T00:56:04;27.77;;;23.27;;
27983;SDS011;15317;50.360;8.726;2024-03-08T01:01:09;25.30;;;22.33;;
27983;SDS011;15317;50.360;8.726;2024-03-08T01:06:12;26.73;;;22.40;;
27983;SDS011;15317;50.360;8.726;2024-03-08T01:11:16;29.57;;;23.63;;
27983;SDS011;15317;50.360;8.726;2024-03-08T01:16:22;27.67;;;23.83;;
27983;SDS011;15317;50.360;8.726;2024-03-08T01:21:25;26.83;;;22.90;;
27983;SDS011;15317;50.360;8.726;2024-03-08T01:26:28;27.07;;;22.60;;
27983;SDS011;15317;50.360;8.726;2024-03-08T01:31:33;27.97;;;22.87;;
27983;SDS011;15317;50.360;8.726;2024-03-08T01:36:38;27.30;;;22.87;;
27983;SDS011;15317;50.360;8.726;2024-03-08T01:41:42;28.23;;;23.73;;
27983;SDS011;15317;50.360;8.726;2024-03-08T01:46:47;26.23;;;23.00;;
27983;SDS011;15317;50.360;8.726;2024-03-08T01:51:54;28.63;;;23.67;;
27983;SDS011;15317;50.360;8.726;2024-03-08T01:56:59;28.63;;;23.20;;
27983;SDS011;15317;50.360;8.726;2024-03-08T02:02:04;30.13;;;22.80;;
27983;SDS011;15317;50.360;8.726;2024-03-08T02:07:10;28.13;;;22.07;;
27983;SDS011;15317;50.360;8.726;2024-03-08T02:12:14;28.43;;;22.63;;
27983;SDS011;15317;50.360;8.726;2024-03-08T02:17:19;24.47;;;21.37;;
27983;SDS011;15317;50.360;8.726;2024-03-08T02:22:23;29.37;;;23.87;;
27983;SDS011;15317;50.360;8.726;2024-03-08T02:27:27;30.57;;;24.83;;
27983;SDS011;15317;50.360;8.726;2024-03-08T02:32:31;29.90;;;24.57;;
27983;SDS011;15317;50.360;8.726;2024-03-08T02:37:37;30.03;;;23.50;;
27983;SDS011;15317;50.360;8.726;2024-03-08T02:42:42;27.07;;;22.97;;
27983;SDS011;15317;50.360;8.726;2024-03-08T02:47:45;31.23;;;25.40;;
27983;SDS011;15317;50.360;8.726;2024-03-08T02:52:52;30.37;;;24.43;;
27983;SDS011;15317;50.360;8.726;2024-03-08T02:57:56;31.57;;;25.20;;
27983;SDS011;15317;50.360;8.726;2024-03-08T03:02:59;29.70;;;24.17;;
27983;SDS011;15317;50.360;8.726;2024-03-08T03:08:06;30.23;;;23.63;;
27983;SDS011;15317;50.360;8.726;2024-03-08T03:13:12;29.37;;;23.60;;
27983;SDS011;15317;50.360;8.726;2024-03-08T03:18:16;29.47;;;23.63;;
27983;SDS011;15317;50.360;8.726;2024-03-08T03:23:24;31.40;;;24.07;;
27983;SDS011;15317;50.360;8.726;2024-03-08T03:28:28;28.33;;;23.50;;
27983;SDS011;15317;50.360;8.726;2024-03-08T03:33:31;29.00;;;23.53;;
27983;SDS011;15317;50.360;8.726;2024-03-08T03:38:37;31.60;;;24.07;;
27983;SDS011;15317;50.360;8.726;2024-03-08T03:43:40;30.70;;;24.33;;
27983;SDS011;15317;50.360;8.726;2024-03-08T03:48:45;31.27;;;24.17;;
27983;SDS011;15317;50.360;8.726;2024-03-08T03:53:49;33.23;;;24.90;;
27983;SDS011;15317;50.360;8.726;2024-03-08T03:58:53;31.83;;;25.90;;
27983;SDS011;15317;50.360;8.726;2024-03-08T04:03:56;34.77;;;25.80;;
27983;SDS011;15317;50.360;8.726;2024-03-08T04:09:01;35.53;;;26.00;;
27983;SDS011;15317;50.360;8.726;2024-03-08T04:14:05;31.87;;;25.77;;
27983;SDS011;15317;50.360;8.726;2024-03-08T04:19:08;33.00;;;25.23;;
27983;SDS011;15317;50.360;8.726;2024-03-08T04:24:13;32.50;;;25.47;;
27983;SDS011;15317;50.360;8.726;2024-03-08T04:29:17;31.33;;;25.13;;
27983;SDS011;15317;50.360;8.726;2024-03-08T04:34:20;35.07;;;26.50;;
27983;SDS011;15317;50.360;8.726;2024-03-08T04:39:25;35.30;;;26.17;;
27983;SDS011;15317;50.360;8.726;2024-03-08T04:44:30;33.17;;;25.47;;
27983;SDS011;15317;50.360;8.726;2024-03-08T04:49:33;33.13;;;26.60;;
27983;SDS011;15317;50.360;8.726;2024-03-08T04:54:38;33.90;;;25.53;;
27983;SDS011;15317;50.360;8.726;2024-03-08T04:59:41;32.07;;;25.33;;
27983;SDS011;15317;50.360;8.726;2024-03-08T05:04:44;33.67;;;25.57;;
27983;SDS011;15317;50.360;8.726;2024-03-08T05:09:49;34.00;;;24.93;;
27983;SDS011;15317;50.360;8.726;2024-03-08T05:14:54;32.40;;;25.60;;
27983;SDS011;15317;50.360;8.726;2024-03-08T05:19:57;31.60;;;24.77;;
27983;SDS011;15317;50.360;8.726;2024-03-08T05:25:02;34.67;;;26.03;;
27983;SDS011;15317;50.360;8.726;2024-03-08T05:30:06;30.73;;;24.00;;
27983;SDS011;15317;50.360;8.726;2024-03-08T05:35:16;31.37;;;24.83;;
27983;SDS011;15317;50.360;8.726;2024-03-08T05:40:21;33.57;;;26.07;;
27983;SDS011;15317;50.360;8.726;2024-03-08T05:45:24;31.80;;;25.17;;
27983;SDS011;15317;50.360;8.726;2024-03-08T05:50:27;32.57;;;25.97;;
27983;SDS011;15317;50.360;8.726;2024-03-08T05:55:32;35.90;;;26.50;;
27983;SDS011;15317;50.360;8.726;2024-03-08T06:00:36;32.40;;;25.33;;
27983;SDS011;15317;50.360;8.726;2024-03-08T06:05:40;33.93;;;25.90;;
27983;SDS011;15317;50.360;8.726;2024-03-08T06:10:45;35.50;;;26.57;;
27983;SDS011;15317;50.360;8.726;2024-03-08T06:15:50;32.97;;;25.73;;
27983;SDS011;15317;50.360;8.726;2024-03-08T06:20:53;32.17;;;25.77;;
27983;SDS011;15317;50.360;8.726;2024-03-08T06:25:59;34.00;;;27.83;;
27983;SDS011;15317;50.360;8.726;2024-03-08T06:31:02;36.00;;;28.90;;
27983;SDS011;15317;50.360;8.726;2024-03-08T06:36:06;36.07;;;27.43;;
27983;SDS011;15317;50.360;8.726;2024-03-08T06:41:11;39.13;;;29.40;;
27983;SDS011;15317;50.360;8.726;2024-03-08T06:46:17;38.60;;;29.17;;
27983;SDS011;15317;50.360;8.726;2024-03-08T06:51:23;36.90;;;28.97;;
27983;SDS011;15317;50.360;8.726;2024-03-08T06:56:28;35.23;;;28.03;;
27983;SDS011;15317;50.360;8.726;2024-03-08T07:01:32;37.17;;;29.50;;
27983;SDS011;15317;50.360;8.726;2024-03-08T07:06:38;33.60;;;27.77;;
27983;SDS011;15317;50.360;8.726;2024-03-08T07:11:44;36.23;;;28.07;;
27983;SDS011;15317;50.360;8.726;2024-03-08T07:16:48;38.20;;;28.47;;
27983;SDS011;15317;50.360;8.726;2024-03-08T07:21:53;34.40;;;27.10;;
27983;SDS011;15317;50.360;8.726;2024-03-08T07:26:58;30.20;;;26.13;;
27983;SDS011;15317;50.360;8.726;2024-03-08T07:32:01;29.70;;;26.37;;
27983;SDS011;15317;50.360;8.726;2024-03-08T07:37:20;27.47;;;24.43;;
27983;SDS011;15317;50.360;8.726;2024-03-08T07:42:24;28.57;;;24.30;;
27983;SDS011;15317;50.360;8.726;2024-03-08T07:47:28;26.70;;;23.90;;
27983;SDS011;15317;50.360;8.726;2024-03-08T07:52:34;25.60;;;23.10;;
27983;SDS011;15317;50.360;8.726;2024-03-08T07:57:39;25.70;;;23.10;;
27983;SDS011;15317;50.360;8.726;2024-03-08T08:02:44;26.00;;;23.40;;
27983;SDS011;15317;50.360;8.726;2024-03-08T08:07:48;24.90;;;22.60;;
27983;SDS011;15317;50.360;8.726;2024-03-08T08:12:55;25.20;;;22.73;;
27983;SDS011;15317;50.360;8.726;2024-03-08T08:17:58;25.27;;;22.97;;
27983;SDS011;15317;50.360;8.726;2024-03-08T08:23:02;25.17;;;22.83;;
27983;SDS011;15317;50.360;8.726;2024-03-08T08:28:07;25.53;;;23.07;;
27983;SDS011;15317;50.360;8.726;2024-03-08T08:33:10;25.60;;;23.20;;
27983;SDS011;15317;50.360;8.726;2024-03-08T08:38:14;23.97;;;21.57;;
27983;SDS011;15317;50.360;8.726;2024-03-08T08:43:19;24.03;;;21.73;;
27983;SDS011;15317;50.360;8.726;2024-03-08T08:48:26;22.93;;;20.83;;
27983;SDS011;15317;50.360;8.726;2024-03-08T08:53:31;23.60;;;21.40;;
27983;SDS011;15317;50.360;8.726;2024-03-08T08:58:36;22.87;;;20.87;;
27983;SDS011;15317;50.360;8.726;2024-03-08T09:03:39;23.20;;;21.10;;
27983;SDS011;15317;50.360;8.726;2024-03-08T09:08:43;23.60;;;21.50;;
27983;SDS011;15317;50.360;8.726;2024-03-08T09:13:49;23.10;;;21.00;;
27983;SDS011;15317;50.360;8.726;2024-03-08T09:18:52;23.77;;;21.57;;
27983;SDS011;15317;50.360;8.726;2024-03-08T09:23:58;22.17;;;20.10;;
27983;SDS011;15317;50.360;8.726;2024-03-08T09:29:03;22.73;;;20.63;;
27983;SDS011;15317;50.360;8.726;2024-03-08T09:34:07;21.80;;;19.90;;
27983;SDS011;15317;50.360;8.726;2024-03-08T09:39:18;20.83;;;18.83;;
27983;SDS011;15317;50.360;8.726;2024-03-08T09:44:27;20.20;;;18.40;;
27983;SDS011;15317;50.360;8.726;2024-03-08T09:49:33;19.37;;;17.67;;
27983;SDS011;15317;50.360;8.726;2024-03-08T09:54:39;19.40;;;17.60;;
27983;SDS011;15317;50.360;8.726;2024-03-08T09:59:47;19.10;;;17.40;;
27983;SDS011;15317;50.360;8.726;2024-03-08T10:04:52;19.00;;;17.20;;
27983;SDS011;15317;50.360;8.726;2024-03-08T10:09:56;17.87;;;16.27;;
27983;SDS011;15317;50.360;8.726;2024-03-08T10:15:00;17.70;;;16.13;;
27983;SDS011;15317;50.360;8.726;2024-03-08T10:20:04;17.00;;;15.40;;
27983;SDS011;15317;50.360;8.726;2024-03-08T10:25:16;18.03;;;16.33;;
27983;SDS011;15317;50.360;8.726;2024-03-08T10:30:22;17.30;;;15.80;;
27983;SDS011;15317;50.360;8.726;2024-03-08T10:35:25;17.37;;;15.70;;
27983;SDS011;15317;50.360;8.726;2024-03-08T10:40:28;16.87;;;15.37;;
27983;SDS011;15317;50.360;8.726;2024-03-08T10:45:36;15.87;;;14.47;;
27983;SDS011;15317;50.360;8.726;2024-03-08T10:50:43;15.50;;;14.10;;
27983;SDS011;15317;50.360;8.726;2024-03-08T10:55:47;15.37;;;14.07;;
27983;SDS011;15317;50.360;8.726;2024-03-08T11:00:57;15.17;;;13.77;;
27983;SDS011;15317;50.360;8.726;2024-03-08T11:06:01;15.83;;;14.43;;
27983;SDS011;15317;50.360;8.726;2024-03-08T11:11:04;14.73;;;13.40;;
27983;SDS011;15317;50.360;8.726;2024-03-08T11:16:09;15.33;;;13.93;;
27983;SDS011;15317;50.360;8.726;2024-03-08T11:21:14;14.63;;;13.43;;
27983;SDS011;15317;50.360;8.726;2024-03-08T11:26:18;14.97;;;13.77;;
27983;SDS011;15317;50.360;8.726;2024-03-08T11:31:24;14.63;;;13.33;;
27983;SDS011;15317;50.360;8.726;2024-03-08T11:36:29;15.37;;;14.00;;
27983;SDS011;15317;50.360;8.726;2024-03-08T11:41:37;14.87;;;13.57;;
27983;SDS011;15317;50.360;8.726;2024-03-08T11:46:42;16.47;;;15.03;;
27983;SDS011;15317;50.360;8.726;2024-03-08T11:51:50;15.87;;;14.47;;
27983;SDS011;15317;50.360;8.726;2024-03-08T11:56:55;15.30;;;14.00;;
27983;SDS011;15317;50.360;8.726;2024-03-08T12:02:04;15.37;;;14.00;;
27983;SDS011;15317;50.360;8.726;2024-03-08T12:07:09;15.30;;;13.90;;
27983;SDS011;15317;50.360;8.726;2024-03-08T12:12:14;15.53;;;14.13;;
27983;SDS011;15317;50.360;8.726;2024-03-08T12:17:19;16.03;;;14.53;;
27983;SDS011;15317;50.360;8.726;2024-03-08T12:22:24;15.43;;;14.03;;
27983;SDS011;15317;50.360;8.726;2024-03-08T12:27:28;15.13;;;13.83;;
27983;SDS011;15317;50.360;8.726;2024-03-08T12:32:33;15.67;;;14.37;;
27983;SDS011;15317;50.360;8.726;2024-03-08T12:37:37;15.60;;;14.20;;
27983;SDS011;15317;50.360;8.726;2024-03-08T12:42:40;16.13;;;14.73;;
27983;SDS011;15317;50.360;8.726;2024-03-08T12:47:45;15.43;;;13.90;;
27983;SDS011;15317;50.360;8.726;2024-03-08T12:52:48;14.50;;;13.30;;
27983;SDS011;15317;50.360;8.726;2024-03-08T12:57:54;14.73;;;13.33;;
27983;SDS011;15317;50.360;8.726;2024-03-08T13:02:59;14.03;;;12.73;;
27983;SDS011;15317;50.360;8.726;2024-03-08T13:08:03;15.23;;;13.80;;
27983;SDS011;15317;50.360;8.726;2024-03-08T13:13:06;14.47;;;13.10;;
27983;SDS011;15317;50.360;8.726;2024-03-08T13:18:12;14.87;;;13.47;;
27983;SDS011;15317;50.360;8.726;2024-03-08T13:23:17;15.60;;;14.00;;
27983;SDS011;15317;50.360;8.726;2024-03-08T13:28:20;15.43;;;14.13;;
27983;SDS011;15317;50.360;8.726;2024-03-08T13:33:31;15.13;;;13.73;;
27983;SDS011;15317;50.360;8.726;2024-03-08T13:38:37;15.87;;;14.47;;
27983;SDS011;15317;50.360;8.726;2024-03-08T13:43:40;17.20;;;15.63;;
27983;SDS011;15317;50.360;8.726;2024-03-08T13:48:45;16.90;;;15.40;;
27983;SDS011;15317;50.360;8.726;2024-03-08T13:53:49;15.57;;;14.23;;
27983;SDS011;15317;50.360;8.726;2024-03-08T13:58:52;17.13;;;15.67;;
27983;SDS011;15317;50.360;8.726;2024-03-08T14:03:59;17.43;;;15.90;;
27983;SDS011;15317;50.360;8.726;2024-03-08T14:09:02;17.70;;;16.10;;
27983;SDS011;15317;50.360;8.726;2024-03-08T14:14:06;18.10;;;16.37;;
27983;SDS011;15317;50.360;8.726;2024-03-08T14:19:12;16.97;;;15.37;;
27983;SDS011;15317;50.360;8.726;2024-03-08T14:24:17;17.77;;;16.07;;
27983;SDS011;15317;50.360;8.726;2024-03-08T14:29:20;17.93;;;16.13;;
27983;SDS011;15317;50.360;8.726;2024-03-08T14:34:25;17.60;;;15.90;;
27983;SDS011;15317;50.360;8.726;2024-03-08T14:39:29;17.10;;;15.50;;
27983;SDS011;15317;50.360;8.726;2024-03-08T14:44:32;18.57;;;16.77;;
27983;SDS011;15317;50.360;8.726;2024-03-08T14:49:37;17.60;;;15.90;;
27983;SDS011;15317;50.360;8.726;2024-03-08T14:54:41;17.90;;;16.20;;
27983;SDS011;15317;50.360;8.726;2024-03-08T14:59:45;18.00;;;16.40;;
27983;SDS011;15317;50.360;8.726;2024-03-08T15:04:49;18.60;;;16.80;;
27983;SDS011;15317;50.360;8.726;2024-03-08T15:09:59;17.30;;;15.50;;
27983;SDS011;15317;50.360;8.726;2024-03-08T15:15:02;17.97;;;16.17;;
27983;SDS011;15317;50.360;8.726;2024-03-08T15:20:11;17.77;;;15.93;;
27983;SDS011;15317;50.360;8.726;2024-03-08T15:25:18;17.37;;;15.67;;
27983;SDS011;15317;50.360;8.726;2024-03-08T15:30:27;17.47;;;15.67;;
27983;SDS011;15317;50.360;8.726;2024-03-08T15:35:34;17.10;;;15.50;;
27983;SDS011;15317;50.360;8.726;2024-03-08T15:40:39;16.87;;;15.27;;
27983;SDS011;15317;50.360;8.726;2024-03-08T15:45:42;15.93;;;14.43;;
27983;SDS011;15317;50.360;8.726;2024-03-08T15:50:47;16.27;;;14.67;;
27983;SDS011;15317;50.360;8.726;2024-03-08T15:55:51;15.83;;;14.23;;
27983;SDS011;15317;50.360;8.726;2024-03-08T16:00:54;15.50;;;14.00;;
27983;SDS011;15317;50.360;8.726;2024-03-08T16:05:59;15.90;;;14.30;;
27983;SDS011;15317;50.360;8.726;2024-03-08T16:11:03;16.70;;;15.10;;
27983;SDS011;15317;50.360;8.726;2024-03-08T16:16:08;16.27;;;14.67;;
27983;SDS011;15317;50.360;8.726;2024-03-08T16:21:12;16.10;;;14.50;;
27983;SDS011;15317;50.360;8.726;2024-03-08T16:26:16;16.97;;;15.23;;
27983;SDS011;15317;50.360;8.726;2024-03-08T16:31:19;16.40;;;14.70;;
27983;SDS011;15317;50.360;8.726;2024-03-08T16:36:24;15.53;;;13.93;;
27983;SDS011;15317;50.360;8.726;2024-03-08T16:41:28;16.13;;;14.53;;
27983;SDS011;15317;50.360;8.726;2024-03-08T16:46:33;16.47;;;14.77;;
27983;SDS011;15317;50.360;8.726;2024-03-08T16:51:43;16.50;;;14.80;;
27983;SDS011;15317;50.360;8.726;2024-03-08T16:56:47;15.63;;;14.13;;
27983;SDS011;15317;50.360;8.726;2024-03-08T17:01:51;15.77;;;14.17;;
27983;SDS011;15317;50.360;8.726;2024-03-08T17:06:55;16.80;;;15.03;;
27983;SDS011;15317;50.360;8.726;2024-03-08T17:12:01;17.23;;;15.53;;
27983;SDS011;15317;50.360;8.726;2024-03-08T17:17:06;17.63;;;14.37;;
27983;SDS011;15317;50.360;8.726;2024-03-08T17:22:11;15.90;;;14.20;;
27983;SDS011;15317;50.360;8.726;2024-03-08T17:27:14;15.70;;;14.20;;
27983;SDS011;15317;50.360;8.726;2024-03-08T17:32:17;16.47;;;14.33;;
27983;SDS011;15317;50.360;8.726;2024-03-08T17:37:22;15.77;;;14.17;;
27983;SDS011;15317;50.360;8.726;2024-03-08T17:42:25;19.77;;;15.80;;
27983;SDS011;15317;50.360;8.726;2024-03-08T17:47:29;16.77;;;15.03;;
27983;SDS011;15317;50.360;8.726;2024-03-08T17:52:34;17.03;;;15.37;;
27983;SDS011;15317;50.360;8.726;2024-03-08T17:57:40;19.17;;;15.33;;
27983;SDS011;15317;50.360;8.726;2024-03-08T18:02:47;20.70;;;17.67;;
27983;SDS011;15317;50.360;8.726;2024-03-08T18:07:53;29.00;;;25.50;;
27983;SDS011;15317;50.360;8.726;2024-03-08T18:13:00;24.80;;;21.90;;
27983;SDS011;15317;50.360;8.726;2024-03-08T18:18:09;22.00;;;19.47;;
27983;SDS011;15317;50.360;8.726;2024-03-08T18:23:15;20.00;;;17.87;;
27983;SDS011;15317;50.360;8.726;2024-03-08T18:28:21;20.37;;;18.03;;
27983;SDS011;15317;50.360;8.726;2024-03-08T18:33:25;20.43;;;18.17;;
27983;SDS011;15317;50.360;8.726;2024-03-08T18:38:31;21.93;;;19.70;;
27983;SDS011;15317;50.360;8.726;2024-03-08T18:43:34;21.23;;;19.07;;
27983;SDS011;15317;50.360;8.726;2024-03-08T18:48:38;19.90;;;17.70;;
27983;SDS011;15317;50.360;8.726;2024-03-08T18:53:42;19.67;;;17.67;;
27983;SDS011;15317;50.360;8.726;2024-03-08T18:58:46;19.33;;;17.10;;
27983;SDS011;15317;50.360;8.726;2024-03-08T19:03:49;18.00;;;16.07;;
27983;SDS011;15317;50.360;8.726;2024-03-08T19:08:54;18.07;;;15.93;;
27983;SDS011;15317;50.360;8.726;2024-03-08T19:14:00;16.73;;;14.97;;
27983;SDS011;15317;50.360;8.726;2024-03-08T19:19:04;15.67;;;14.07;;
27983;SDS011;15317;50.360;8.726;2024-03-08T19:24:09;15.90;;;14.13;;
27983;SDS011;15317;50.360;8.726;2024-03-08T19:29:13;14.77;;;13.27;;
27983;SDS011;15317;50.360;8.726;2024-03-08T19:34:20;14.40;;;12.90;;
27983;SDS011;15317;50.360;8.726;2024-03-08T19:39:28;15.80;;;13.03;;
27983;SDS011;15317;50.360;8.726;2024-03-08T19:44:32;15.57;;;13.97;;
27983;SDS011;15317;50.360;8.726;2024-03-08T19:49:36;14.73;;;13.23;;
27983;SDS011;15317;50.360;8.726;2024-03-08T19:54:41;16.07;;;14.27;;
27983;SDS011;15317;50.360;8.726;2024-03-08T19:59:44;15.70;;;14.10;;
27983;SDS011;15317;50.360;8.726;2024-03-08T20:04:48;14.70;;;13.20;;
27983;SDS011;15317;50.360;8.726;2024-03-08T20:09:53;14.93;;;13.47;;
27983;SDS011;15317;50.360;8.726;2024-03-08T20:14:58;14.63;;;12.93;;
27983;SDS011;15317;50.360;8.726;2024-03-08T20:20:01;16.47;;;13.77;;
27983;SDS011;15317;50.360;8.726;2024-03-08T20:25:07;14.10;;;12.57;;
27983;SDS011;15317;50.360;8.726;2024-03-08T20:30:15;14.73;;;13.23;;
27983;SDS011;15317;50.360;8.726;2024-03-08T20:35:23;14.83;;;12.77;;
27983;SDS011;15317;50.360;8.726;2024-03-08T20:40:29;14.40;;;12.90;;
27983;SDS011;15317;50.360;8.726;2024-03-08T20:45:39;14.97;;;13.37;;
27983;SDS011;15317;50.360;8.726;2024-03-08T20:50:42;17.60;;;14.10;;
27983;SDS011;15317;50.360;8.726;2024-03-08T20:55:47;16.20;;;13.70;;
27983;SDS011;15317;50.360;8.726;2024-03-08T21:00:52;15.50;;;13.50;;
27983;SDS011;15317;50.360;8.726;2024-03-08T21:06:01;16.50;;;14.80;;
27983;SDS011;15317;50.360;8.726;2024-03-08T21:11:06;15.83;;;14.13;;
27983;SDS011;15317;50.360;8.726;2024-03-08T21:16:11;15.00;;;13.40;;
27983;SDS011;15317;50.360;8.726;2024-03-08T21:21:15;15.30;;;13.57;;
27983;SDS011;15317;50.360;8.726;2024-03-08T21:26:19;16.37;;;14.67;;
27983;SDS011;15317;50.360;8.726;2024-03-08T21:31:24;16.43;;;14.53;;
27983;SDS011;15317;50.360;8.726;2024-03-08T21:36:27;15.00;;;13.47;;
27983;SDS011;15317;50.360;8.726;2024-03-08T21:41:32;16.03;;;14.37;;
27983;SDS011;15317;50.360;8.726;2024-03-08T21:46:36;18.60;;;14.90;;
27983;SDS011;15317;50.360;8.726;2024-03-08T21:51:40;16.37;;;14.53;;
27983;SDS011;15317;50.360;8.726;2024-03-08T21:56:49;16.80;;;15.10;;
27983;SDS011;15317;50.360;8.726;2024-03-08T22:01:53;16.10;;;14.43;;
27983;SDS011;15317;50.360;8.726;2024-03-08T22:06:56;17.07;;;15.27;;
27983;SDS011;15317;50.360;8.726;2024-03-08T22:12:02;17.67;;;15.77;;
27983;SDS011;15317;50.360;8.726;2024-03-08T22:17:06;17.80;;;15.90;;
27983;SDS011;15317;50.360;8.726;2024-03-08T22:22:11;18.57;;;16.23;;
27983;SDS011;15317;50.360;8.726;2024-03-08T22:27:18;17.37;;;15.43;;
27983;SDS011;15317;50.360;8.726;2024-03-08T22:32:22;17.83;;;15.53;;
27983;SDS011;15317;50.360;8.726;2024-03-08T22:37:26;17.73;;;15.30;;
27983;SDS011;15317;50.360;8.726;2024-03-08T22:42:30;18.03;;;15.33;;
27983;SDS011;15317;50.360;8.726;2024-03-08T22:47:37;19.17;;;16.37;;
27983;SDS011;15317;50.360;8.726;2024-03-08T22:52:40;18.30;;;16.00;;
27983;SDS011;15317;50.360;8.726;2024-03-08T22:57:48;17.17;;;15.37;;
27983;SDS011;15317;50.360;8.726;2024-03-08T23:02:53;17.47;;;15.60;;
27983;SDS011;15317;50.360;8.726;2024-03-08T23:07:57;17.60;;;15.60;;
27983;SDS011;15317;50.360;8.726;2024-03-08T23:13:04;18.50;;;16.50;;
27983;SDS011;15317;50.360;8.726;2024-03-08T23:18:07;18.17;;;16.17;;
27983;SDS011;15317;50.360;8.726;2024-03-08T23:23:12;20.13;;;17.03;;
27983;SDS011;15317;50.360;8.726;2024-03-08T23:28:17;19.40;;;16.83;;
27983;SDS011;15317;50.360;8.726;2024-03-08T23:33:21;19.37;;;16.60;;
27983;SDS011;15317;50.360;8.726;2024-03-08T23:38:24;18.73;;;16.23;;
27983;SDS011;15317;50.360;8.726;2024-03-08T23:43:28;18.17;;;16.00;;
27983;SDS011;15317;50.360;8.726;2024-03-08T23:48:32;18.07;;;16.03;;
27983;SDS011;15317;50.360;8.726;2024-03-08T23:53:35;19.87;;;16.27;;
27983;SDS011;15317;50.360;8.726;2024-03-08T23:58:40;19.53;;;16.83;;
